sensor_id;sensor_type;location;lat;lon;timestamp;pressure;altitude;pressure_sealevel;temperature;humidity
46412;BME280;32113;42.012;24.870;2022-09-02T00:01:10;98638.16;;;22.60;71.88
46412;BME280;32113;42.012;24.870;2022-09-02T00:03:36;98638.06;;;22.62;71.66
46412;BME280;32113;42.012;24.870;2022-09-02T00:06:02;98637.34;;;22.60;71.69
46412;BME280;32113;42.012;24.870;2022-09-02T00:08:27;98637.75;;;22.79;70.85
46412;BME280;32113;42.012;24.870;2022-09-02T00:10:53;98633.78;;;22.87;70.16
46412;BME280;32113;42.012;24.870;2022-09-02T00:13:18;98627.94;;;22.83;70.24
46412;BME280;32113;42.012;24.870;2022-09-02T00:15:45;98637.13;;;23.02;69.25
46412;BME280;32113;42.012;24.870;2022-09-02T00:18:10;98640.91;;;23.10;69.21
46412;BME280;32113;42.012;24.870;2022-09-02T00:20:37;98640.03;;;23.23;68.16
46412;BME280;32113;42.012;24.870;2022-09-02T00:23:02;98633.53;;;23.29;67.78
46412;BME280;32113;42.012;24.870;2022-09-02T00:25:28;98638.88;;;23.27;67.62
46412;BME280;32113;42.012;24.870;2022-09-02T00:27:53;98636.69;;;23.21;68.07
46412;BME280;32113;42.012;24.870;2022-09-02T00:30:18;98632.50;;;23.31;67.75
46412;BME280;32113;42.012;24.870;2022-09-02T00:32:44;98635.72;;;23.48;66.89
46412;BME280;32113;42.012;24.870;2022-09-02T00:35:09;98628.16;;;23.56;66.35
46412;BME280;32113;42.012;24.870;2022-09-02T00:37:35;98632.97;;;23.62;65.94
46412;BME280;32113;42.012;24.870;2022-09-02T00:40:01;98640.75;;;23.51;65.83
46412;BME280;32113;42.012;24.870;2022-09-02T00:42:26;98640.56;;;23.15;67.09
46412;BME280;32113;42.012;24.870;2022-09-02T00:44:52;98640.06;;;23.10;67.55
46412;BME280;32113;42.012;24.870;2022-09-02T00:47:17;98641.13;;;22.94;68.20
46412;BME280;32113;42.012;24.870;2022-09-02T00:49:44;98638.19;;;22.86;69.24
46412;BME280;32113;42.012;24.870;2022-09-02T00:52:20;98632.34;;;22.82;69.87
46412;BME280;32113;42.012;24.870;2022-09-02T00:55:00;98640.34;;;23.05;69.48
46412;BME280;32113;42.012;24.870;2022-09-02T00:57:28;98642.56;;;23.12;68.71
46412;BME280;32113;42.012;24.870;2022-09-02T01:00:00;98639.53;;;23.05;69.21
46412;BME280;32113;42.012;24.870;2022-09-02T01:02:27;98637.88;;;22.78;70.44
46412;BME280;32113;42.012;24.870;2022-09-02T01:04:52;98635.66;;;22.84;70.62
46412;BME280;32113;42.012;24.870;2022-09-02T01:07:20;98633.16;;;22.70;71.17
46412;BME280;32113;42.012;24.870;2022-09-02T01:09:46;98637.25;;;22.74;71.13
46412;BME280;32113;42.012;24.870;2022-09-02T01:12:12;98630.63;;;22.55;71.33
46412;BME280;32113;42.012;24.870;2022-09-02T01:14:38;98634.03;;;22.43;72.99
46412;BME280;32113;42.012;24.870;2022-09-02T01:17:03;98637.69;;;22.40;73.80
46412;BME280;32113;42.012;24.870;2022-09-02T01:19:37;98639.97;;;22.32;74.69
46412;BME280;32113;42.012;24.870;2022-09-02T01:22:14;98638.81;;;22.23;75.79
46412;BME280;32113;42.012;24.870;2022-09-02T01:24:40;98630.88;;;22.25;76.08
46412;BME280;32113;42.012;24.870;2022-09-02T01:27:05;98624.78;;;22.24;75.75
46412;BME280;32113;42.012;24.870;2022-09-02T01:29:31;98626.78;;;22.21;75.62
46412;BME280;32113;42.012;24.870;2022-09-02T01:31:56;98626.75;;;22.08;75.91
46412;BME280;32113;42.012;24.870;2022-09-02T01:34:22;98622.50;;;21.92;76.89
46412;BME280;32113;42.012;24.870;2022-09-02T01:36:48;98617.09;;;21.95;77.19
46412;BME280;32113;42.012;24.870;2022-09-02T01:39:13;98622.25;;;22.10;76.09
46412;BME280;32113;42.012;24.870;2022-09-02T01:41:39;98618.34;;;22.30;75.30
46412;BME280;32113;42.012;24.870;2022-09-02T01:44:05;98623.91;;;22.38;74.15
46412;BME280;32113;42.012;24.870;2022-09-02T01:46:31;98621.81;;;22.43;73.83
46412;BME280;32113;42.012;24.870;2022-09-02T01:48:57;98614.16;;;22.40;73.72
46412;BME280;32113;42.012;24.870;2022-09-02T01:51:22;98610.78;;;22.25;74.23
46412;BME280;32113;42.012;24.870;2022-09-02T01:53:47;98615.72;;;22.30;73.82
46412;BME280;32113;42.012;24.870;2022-09-02T01:56:13;98609.53;;;22.18;74.09
46412;BME280;32113;42.012;24.870;2022-09-02T01:58:39;98616.84;;;22.13;74.82
46412;BME280;32113;42.012;24.870;2022-09-02T02:01:04;98616.44;;;22.32;73.48
46412;BME280;32113;42.012;24.870;2022-09-02T02:03:30;98623.13;;;22.23;73.56
46412;BME280;32113;42.012;24.870;2022-09-02T02:05:55;98614.00;;;22.16;74.15
46412;BME280;32113;42.012;24.870;2022-09-02T02:08:21;98618.75;;;22.37;72.90
46412;BME280;32113;42.012;24.870;2022-09-02T02:10:47;98624.84;;;22.50;72.02
46412;BME280;32113;42.012;24.870;2022-09-02T02:13:12;98622.91;;;22.54;72.12
46412;BME280;32113;42.012;24.870;2022-09-02T02:15:38;98620.00;;;22.72;71.20
46412;BME280;32113;42.012;24.870;2022-09-02T02:18:03;98618.09;;;22.87;69.88
46412;BME280;32113;42.012;24.870;2022-09-02T02:20:29;98617.25;;;22.99;69.28
46412;BME280;32113;42.012;24.870;2022-09-02T02:22:54;98621.22;;;23.05;69.18
46412;BME280;32113;42.012;24.870;2022-09-02T02:25:19;98617.88;;;23.16;68.51
46412;BME280;32113;42.012;24.870;2022-09-02T02:27:45;98626.13;;;23.09;68.09
46412;BME280;32113;42.012;24.870;2022-09-02T02:30:11;98621.66;;;23.12;68.43
46412;BME280;32113;42.012;24.870;2022-09-02T02:32:37;98619.97;;;22.97;68.51
46412;BME280;32113;42.012;24.870;2022-09-02T02:35:03;98619.97;;;22.84;69.66
46412;BME280;32113;42.012;24.870;2022-09-02T02:37:28;98616.41;;;22.86;69.42
46412;BME280;32113;42.012;24.870;2022-09-02T02:39:54;98611.19;;;22.86;69.78
46412;BME280;32113;42.012;24.870;2022-09-02T02:42:21;98611.41;;;22.95;68.77
46412;BME280;32113;42.012;24.870;2022-09-02T02:44:46;98616.41;;;22.99;68.69
46412;BME280;32113;42.012;24.870;2022-09-02T02:47:12;98614.94;;;23.07;68.22
46412;BME280;32113;42.012;24.870;2022-09-02T02:49:38;98609.72;;;23.07;67.59
46412;BME280;32113;42.012;24.870;2022-09-02T02:52:04;98615.47;;;23.00;68.14
46412;BME280;32113;42.012;24.870;2022-09-02T02:54:30;98603.53;;;23.08;67.94
46412;BME280;32113;42.012;24.870;2022-09-02T02:56:55;98617.03;;;23.02;67.88
46412;BME280;32113;42.012;24.870;2022-09-02T02:59:20;98610.16;;;23.01;67.84
46412;BME280;32113;42.012;24.870;2022-09-02T03:01:45;98614.56;;;22.88;68.59
46412;BME280;32113;42.012;24.870;2022-09-02T03:04:11;98610.16;;;23.01;68.16
46412;BME280;32113;42.012;24.870;2022-09-02T03:06:36;98602.41;;;22.87;68.75
46412;BME280;32113;42.012;24.870;2022-09-02T03:09:01;98605.78;;;22.76;68.81
46412;BME280;32113;42.012;24.870;2022-09-02T03:11:27;98614.53;;;22.62;70.05
46412;BME280;32113;42.012;24.870;2022-09-02T03:13:53;98610.50;;;22.30;71.63
46412;BME280;32113;42.012;24.870;2022-09-02T03:16:18;98608.81;;;22.29;72.28
46412;BME280;32113;42.012;24.870;2022-09-02T03:18:44;98615.97;;;22.53;71.00
46412;BME280;32113;42.012;24.870;2022-09-02T03:21:09;98606.75;;;22.47;71.46
46412;BME280;32113;42.012;24.870;2022-09-02T03:23:35;98606.75;;;22.34;71.91
46412;BME280;32113;42.012;24.870;2022-09-02T03:26:00;98606.28;;;22.14;72.78
46412;BME280;32113;42.012;24.870;2022-09-02T03:28:26;98611.50;;;22.14;73.12
46412;BME280;32113;42.012;24.870;2022-09-02T03:30:51;98614.47;;;21.95;74.11
46412;BME280;32113;42.012;24.870;2022-09-02T03:33:16;98613.31;;;21.86;74.73
46412;BME280;32113;42.012;24.870;2022-09-02T03:35:42;98607.97;;;21.88;74.89
46412;BME280;32113;42.012;24.870;2022-09-02T03:38:08;98602.56;;;21.91;74.54
46412;BME280;32113;42.012;24.870;2022-09-02T03:40:34;98606.63;;;21.95;74.14
46412;BME280;32113;42.012;24.870;2022-09-02T03:42:59;98605.19;;;22.04;73.83
46412;BME280;32113;42.012;24.870;2022-09-02T03:45:25;98610.41;;;22.04;74.04
46412;BME280;32113;42.012;24.870;2022-09-02T03:47:50;98612.56;;;21.84;74.98
46412;BME280;32113;42.012;24.870;2022-09-02T03:50:18;98614.44;;;21.82;75.42
46412;BME280;32113;42.012;24.870;2022-09-02T03:52:44;98617.22;;;21.79;75.63
46412;BME280;32113;42.012;24.870;2022-09-02T03:55:09;98615.59;;;21.91;75.30
46412;BME280;32113;42.012;24.870;2022-09-02T03:57:35;98609.06;;;21.98;74.71
46412;BME280;32113;42.012;24.870;2022-09-02T04:00:01;98609.75;;;21.87;75.29
46412;BME280;32113;42.012;24.870;2022-09-02T04:02:27;98608.09;;;21.86;75.94
46412;BME280;32113;42.012;24.870;2022-09-02T04:04:52;98614.72;;;22.05;74.24
46412;BME280;32113;42.012;24.870;2022-09-02T04:07:18;98620.25;;;22.13;73.93
46412;BME280;32113;42.012;24.870;2022-09-02T04:09:44;98622.69;;;22.16;73.27
46412;BME280;32113;42.012;24.870;2022-09-02T04:12:09;98621.03;;;22.15;73.18
46412;BME280;32113;42.012;24.870;2022-09-02T04:14:35;98619.63;;;22.10;73.04
46412;BME280;32113;42.012;24.870;2022-09-02T04:17:00;98624.13;;;22.08;73.14
46412;BME280;32113;42.012;24.870;2022-09-02T04:19:25;98625.56;;;21.99;73.59
46412;BME280;32113;42.012;24.870;2022-09-02T04:21:51;98626.84;;;22.06;73.53
46412;BME280;32113;42.012;24.870;2022-09-02T04:24:16;98630.09;;;22.10;73.42
46412;BME280;32113;42.012;24.870;2022-09-02T04:26:41;98631.44;;;22.02;73.50
46412;BME280;32113;42.012;24.870;2022-09-02T04:29:07;98639.41;;;22.14;72.98
46412;BME280;32113;42.012;24.870;2022-09-02T04:31:33;98646.78;;;22.07;73.62
46412;BME280;32113;42.012;24.870;2022-09-02T04:33:59;98643.69;;;22.15;73.13
46412;BME280;32113;42.012;24.870;2022-09-02T04:36:25;98646.22;;;22.29;72.45
46412;BME280;32113;42.012;24.870;2022-09-02T04:38:51;98646.13;;;22.31;71.97
46412;BME280;32113;42.012;24.870;2022-09-02T04:41:21;98649.50;;;22.33;71.90
46412;BME280;32113;42.012;24.870;2022-09-02T04:43:49;98652.31;;;22.30;71.54
46412;BME280;32113;42.012;24.870;2022-09-02T04:46:14;98641.84;;;22.30;71.95
46412;BME280;32113;42.012;24.870;2022-09-02T04:48:40;98651.06;;;22.36;72.50
46412;BME280;32113;42.012;24.870;2022-09-02T04:51:06;98652.31;;;22.43;72.00
46412;BME280;32113;42.012;24.870;2022-09-02T04:53:32;98659.16;;;22.58;71.13
46412;BME280;32113;42.012;24.870;2022-09-02T04:55:58;98661.91;;;22.70;70.67
46412;BME280;32113;42.012;24.870;2022-09-02T04:58:23;98665.25;;;22.72;70.33
46412;BME280;32113;42.012;24.870;2022-09-02T05:00:49;98656.34;;;22.62;70.18
46412;BME280;32113;42.012;24.870;2022-09-02T05:03:14;98656.50;;;22.73;69.91
46412;BME280;32113;42.012;24.870;2022-09-02T05:05:40;98663.28;;;22.89;69.31
46412;BME280;32113;42.012;24.870;2022-09-02T05:08:05;98659.72;;;23.03;68.25
46412;BME280;32113;42.012;24.870;2022-09-02T05:10:31;98668.41;;;23.03;67.76
46412;BME280;32113;42.012;24.870;2022-09-02T05:12:57;98668.63;;;23.13;67.70
46412;BME280;32113;42.012;24.870;2022-09-02T05:15:23;98668.72;;;22.99;67.88
46412;BME280;32113;42.012;24.870;2022-09-02T05:17:49;98662.25;;;23.04;67.91
46412;BME280;32113;42.012;24.870;2022-09-02T05:20:14;98655.22;;;23.18;67.71
46412;BME280;32113;42.012;24.870;2022-09-02T05:22:39;98655.53;;;23.26;66.55
46412;BME280;32113;42.012;24.870;2022-09-02T05:25:05;98654.59;;;23.40;67.35
46412;BME280;32113;42.012;24.870;2022-09-02T05:27:32;98654.56;;;23.53;65.90
46412;BME280;32113;42.012;24.870;2022-09-02T05:29:58;98657.50;;;23.48;66.53
46412;BME280;32113;42.012;24.870;2022-09-02T05:32:26;98652.22;;;23.61;66.35
46412;BME280;32113;42.012;24.870;2022-09-02T05:34:52;98648.09;;;23.83;65.45
46412;BME280;32113;42.012;24.870;2022-09-02T05:37:17;98644.84;;;24.04;64.46
46412;BME280;32113;42.012;24.870;2022-09-02T05:39:42;98648.63;;;24.13;63.59
46412;BME280;32113;42.012;24.870;2022-09-02T05:42:08;98642.44;;;24.25;63.31
46412;BME280;32113;42.012;24.870;2022-09-02T05:44:34;98642.41;;;24.38;63.04
46412;BME280;32113;42.012;24.870;2022-09-02T05:47:00;98634.44;;;24.51;62.41
46412;BME280;32113;42.012;24.870;2022-09-02T05:49:25;98635.19;;;24.65;62.30
46412;BME280;32113;42.012;24.870;2022-09-02T05:51:52;98639.47;;;24.77;61.68
46412;BME280;32113;42.012;24.870;2022-09-02T05:54:22;98634.13;;;24.79;61.42
46412;BME280;32113;42.012;24.870;2022-09-02T05:56:50;98637.50;;;24.92;61.04
46412;BME280;32113;42.012;24.870;2022-09-02T05:59:15;98639.66;;;24.87;61.29
46412;BME280;32113;42.012;24.870;2022-09-02T06:01:41;98640.88;;;24.95;60.83
46412;BME280;32113;42.012;24.870;2022-09-02T06:04:06;98640.28;;;25.02;61.12
46412;BME280;32113;42.012;24.870;2022-09-02T06:06:32;98641.34;;;25.11;60.98
46412;BME280;32113;42.012;24.870;2022-09-02T06:08:57;98641.34;;;25.00;60.50
46412;BME280;32113;42.012;24.870;2022-09-02T06:11:24;98641.22;;;25.13;60.29
46412;BME280;32113;42.012;24.870;2022-09-02T06:13:50;98642.28;;;25.10;60.18
46412;BME280;32113;42.012;24.870;2022-09-02T06:16:20;98642.06;;;25.02;59.95
46412;BME280;32113;42.012;24.870;2022-09-02T06:18:45;98646.69;;;25.10;60.25
46412;BME280;32113;42.012;24.870;2022-09-02T06:21:11;98644.69;;;24.90;60.09
46412;BME280;32113;42.012;24.870;2022-09-02T06:23:38;98646.34;;;25.03;60.56
46412;BME280;32113;42.012;24.870;2022-09-02T06:26:04;98645.53;;;25.02;60.26
46412;BME280;32113;42.012;24.870;2022-09-02T06:28:29;98648.38;;;25.22;59.78
46412;BME280;32113;42.012;24.870;2022-09-02T06:30:55;98645.50;;;25.37;59.54
46412;BME280;32113;42.012;24.870;2022-09-02T06:33:20;98643.81;;;25.47;58.45
46412;BME280;32113;42.012;24.870;2022-09-02T06:35:45;98650.25;;;25.54;58.67
46412;BME280;32113;42.012;24.870;2022-09-02T06:38:11;98638.69;;;25.68;58.63
46412;BME280;32113;42.012;24.870;2022-09-02T06:40:44;98641.53;;;25.77;57.78
46412;BME280;32113;42.012;24.870;2022-09-02T06:43:10;98645.91;;;25.88;57.92
46412;BME280;32113;42.012;24.870;2022-09-02T06:45:39;98644.31;;;25.96;57.06
46412;BME280;32113;42.012;24.870;2022-09-02T06:48:05;98646.59;;;26.01;57.40
46412;BME280;32113;42.012;24.870;2022-09-02T06:50:30;98643.00;;;26.02;58.43
46412;BME280;32113;42.012;24.870;2022-09-02T06:52:55;98642.88;;;26.04;59.30
46412;BME280;32113;42.012;24.870;2022-09-02T06:55:20;98646.75;;;26.21;60.60
46412;BME280;32113;42.012;24.870;2022-09-02T06:57:46;98650.72;;;26.27;61.14
46412;BME280;32113;42.012;24.870;2022-09-02T07:00:11;98653.03;;;26.41;61.41
46412;BME280;32113;42.012;24.870;2022-09-02T07:02:37;98652.44;;;26.59;62.78
46412;BME280;32113;42.012;24.870;2022-09-02T07:05:02;98650.97;;;26.66;63.54
46412;BME280;32113;42.012;24.870;2022-09-02T07:07:37;98658.22;;;26.74;63.85
46412;BME280;32113;42.012;24.870;2022-09-02T07:10:07;98656.44;;;26.74;65.03
46412;BME280;32113;42.012;24.870;2022-09-02T07:12:33;98665.72;;;26.79;66.17
46412;BME280;32113;42.012;24.870;2022-09-02T07:14:58;98665.72;;;26.79;66.45
46412;BME280;32113;42.012;24.870;2022-09-02T07:17:25;98668.53;;;26.87;66.20
46412;BME280;32113;42.012;24.870;2022-09-02T07:19:50;98661.59;;;26.86;66.77
46412;BME280;32113;42.012;24.870;2022-09-02T07:22:15;98655.84;;;26.92;66.64
46412;BME280;32113;42.012;24.870;2022-09-02T07:24:41;98660.84;;;26.95;66.80
46412;BME280;32113;42.012;24.870;2022-09-02T07:27:06;98669.72;;;26.94;67.08
46412;BME280;32113;42.012;24.870;2022-09-02T07:29:32;98665.72;;;27.00;67.10
46412;BME280;32113;42.012;24.870;2022-09-02T07:31:57;98672.25;;;27.06;66.93
46412;BME280;32113;42.012;24.870;2022-09-02T07:34:23;98667.03;;;27.15;66.48
46412;BME280;32113;42.012;24.870;2022-09-02T07:36:48;98670.81;;;27.23;65.91
46412;BME280;32113;42.012;24.870;2022-09-02T07:39:14;98670.94;;;27.21;65.97
46412;BME280;32113;42.012;24.870;2022-09-02T07:41:41;98668.44;;;27.20;65.90
46412;BME280;32113;42.012;24.870;2022-09-02T07:44:07;98669.25;;;27.20;66.05
46412;BME280;32113;42.012;24.870;2022-09-02T07:46:33;98664.03;;;27.30;66.52
46412;BME280;32113;42.012;24.870;2022-09-02T07:48:59;98667.09;;;27.35;66.08
46412;BME280;32113;42.012;24.870;2022-09-02T07:51:24;98662.84;;;27.44;65.92
46412;BME280;32113;42.012;24.870;2022-09-02T07:53:50;98653.56;;;27.50;65.40
46412;BME280;32113;42.012;24.870;2022-09-02T07:56:16;98655.66;;;27.46;65.72
46412;BME280;32113;42.012;24.870;2022-09-02T07:58:42;98653.56;;;27.50;65.94
46412;BME280;32113;42.012;24.870;2022-09-02T08:01:08;98652.47;;;27.52;66.08
46412;BME280;32113;42.012;24.870;2022-09-02T08:03:33;98655.81;;;27.54;65.67
46412;BME280;32113;42.012;24.870;2022-09-02T08:05:59;98656.78;;;27.53;65.42
46412;BME280;32113;42.012;24.870;2022-09-02T08:08:25;98664.22;;;27.48;65.58
46412;BME280;32113;42.012;24.870;2022-09-02T08:10:52;98647.41;;;27.29;65.26
46412;BME280;32113;42.012;24.870;2022-09-02T08:13:18;98655.94;;;27.12;66.17
46412;BME280;32113;42.012;24.870;2022-09-02T08:15:44;98652.41;;;27.01;66.84
46412;BME280;32113;42.012;24.870;2022-09-02T08:18:09;98647.03;;;27.03;67.06
46412;BME280;32113;42.012;24.870;2022-09-02T08:20:35;98643.88;;;27.09;66.83
46412;BME280;32113;42.012;24.870;2022-09-02T08:23:02;98643.13;;;26.97;66.99
46412;BME280;32113;42.012;24.870;2022-09-02T08:25:28;98639.72;;;27.07;67.19
46412;BME280;32113;42.012;24.870;2022-09-02T08:27:53;98633.91;;;27.13;66.06
46412;BME280;32113;42.012;24.870;2022-09-02T08:30:18;98634.59;;;27.15;66.37
46412;BME280;32113;42.012;24.870;2022-09-02T08:32:44;98635.88;;;27.21;65.32
46412;BME280;32113;42.012;24.870;2022-09-02T08:35:09;98626.88;;;27.23;64.63
46412;BME280;32113;42.012;24.870;2022-09-02T08:37:35;98625.03;;;27.14;64.15
46412;BME280;32113;42.012;24.870;2022-09-02T08:40:01;98630.44;;;27.12;64.95
46412;BME280;32113;42.012;24.870;2022-09-02T08:42:33;98629.03;;;27.08;65.67
46412;BME280;32113;42.012;24.870;2022-09-02T08:45:03;98623.25;;;27.14;64.46
46412;BME280;32113;42.012;24.870;2022-09-02T08:47:30;98626.03;;;27.13;64.51
46412;BME280;32113;42.012;24.870;2022-09-02T08:50:03;98617.41;;;27.11;63.53
46412;BME280;32113;42.012;24.870;2022-09-02T08:52:37;98631.53;;;27.10;63.91
46412;BME280;32113;42.012;24.870;2022-09-02T08:55:03;98628.22;;;27.08;63.22
46412;BME280;32113;42.012;24.870;2022-09-02T08:57:30;98624.34;;;27.12;62.94
46412;BME280;32113;42.012;24.870;2022-09-02T08:59:56;98610.22;;;27.13;60.92
46412;BME280;32113;42.012;24.870;2022-09-02T09:17:47;98599.44;;;27.16;58.78
46412;BME280;32113;42.012;24.870;2022-09-02T09:20:21;98595.16;;;27.25;60.14
46412;BME280;32113;42.012;24.870;2022-09-02T09:22:50;98597.91;;;27.23;62.94
46412;BME280;32113;42.012;24.870;2022-09-02T09:25:18;98600.81;;;27.20;61.41
46412;BME280;32113;42.012;24.870;2022-09-02T09:27:44;98596.00;;;27.25;60.64
46412;BME280;32113;42.012;24.870;2022-09-02T09:30:10;98585.03;;;27.30;60.49
46412;BME280;32113;42.012;24.870;2022-09-02T09:32:39;98580.63;;;27.31;58.49
46412;BME280;32113;42.012;24.870;2022-09-02T09:39:57;98618.75;;;27.46;55.76
46412;BME280;32113;42.012;24.870;2022-09-02T09:42:29;98626.63;;;27.36;58.43
46412;BME280;32113;42.012;24.870;2022-09-02T09:44:55;98622.72;;;27.21;59.68
46412;BME280;32113;42.012;24.870;2022-09-02T09:47:21;98625.31;;;26.89;60.67
46412;BME280;32113;42.012;24.870;2022-09-02T09:49:48;98654.59;;;26.75;60.32
46412;BME280;32113;42.012;24.870;2022-09-02T09:55:03;98671.88;;;26.46;61.68
46412;BME280;32113;42.012;24.870;2022-09-02T09:57:30;98678.66;;;26.28;60.32
46412;BME280;32113;42.012;24.870;2022-09-02T09:59:55;98667.66;;;26.22;59.42
46412;BME280;32113;42.012;24.870;2022-09-02T10:02:23;98659.78;;;26.22;59.25
46412;BME280;32113;42.012;24.870;2022-09-02T10:04:50;98653.91;;;26.30;58.62
46412;BME280;32113;42.012;24.870;2022-09-02T10:07:32;98661.56;;;26.22;56.95
46412;BME280;32113;42.012;24.870;2022-09-02T10:10:08;98665.78;;;26.13;57.72
46412;BME280;32113;42.012;24.870;2022-09-02T10:12:36;98686.13;;;26.00;59.83
46412;BME280;32113;42.012;24.870;2022-09-02T10:15:01;98688.88;;;25.98;61.65
46412;BME280;32113;42.012;24.870;2022-09-02T10:17:31;98687.84;;;25.89;62.09
46412;BME280;32113;42.012;24.870;2022-09-02T10:25:24;98686.53;;;24.92;62.99
46412;BME280;32113;42.012;24.870;2022-09-02T10:30:22;98668.78;;;24.60;60.88
46412;BME280;32113;42.012;24.870;2022-09-02T10:33:10;98685.25;;;24.62;61.55
46412;BME280;32113;42.012;24.870;2022-09-02T10:35:46;98679.16;;;24.25;60.82
46412;BME280;32113;42.012;24.870;2022-09-02T10:40:51;98670.13;;;24.05;60.48
46412;BME280;32113;42.012;24.870;2022-09-02T10:45:52;98696.00;;;24.34;59.02
46412;BME280;32113;42.012;24.870;2022-09-02T10:58:19;98669.88;;;24.57;59.46
46412;BME280;32113;42.012;24.870;2022-09-02T11:00:46;98673.94;;;24.61;58.81
46412;BME280;32113;42.012;24.870;2022-09-02T11:03:20;98689.78;;;24.71;59.49
46412;BME280;32113;42.012;24.870;2022-09-02T11:05:49;98701.06;;;24.85;59.35
46412;BME280;32113;42.012;24.870;2022-09-02T11:16:01;98702.91;;;25.18;57.59
46412;BME280;32113;42.012;24.870;2022-09-02T11:21:08;98682.63;;;25.09;58.46
46412;BME280;32113;42.012;24.870;2022-09-02T11:23:38;98688.34;;;25.26;57.93
46412;BME280;32113;42.012;24.870;2022-09-02T11:31:06;98674.53;;;25.24;58.00
46412;BME280;32113;42.012;24.870;2022-09-02T11:33:38;98665.81;;;25.12;60.56
46412;BME280;32113;42.012;24.870;2022-09-02T11:36:07;98670.94;;;25.13;64.11
46412;BME280;32113;42.012;24.870;2022-09-02T11:38:34;98669.25;;;25.01;64.64
46412;BME280;32113;42.012;24.870;2022-09-02T11:41:08;98668.03;;;24.93;66.26
46412;BME280;32113;42.012;24.870;2022-09-02T11:43:51;98653.47;;;24.89;67.41
46412;BME280;32113;42.012;24.870;2022-09-02T11:46:23;98648.75;;;24.95;70.98
46412;BME280;32113;42.012;24.870;2022-09-02T11:48:58;98652.06;;;24.85;69.75
46412;BME280;32113;42.012;24.870;2022-09-02T11:53:53;98659.38;;;24.69;72.14
46412;BME280;32113;42.012;24.870;2022-09-02T11:56:21;98663.19;;;24.64;72.70
46412;BME280;32113;42.012;24.870;2022-09-02T11:58:51;98667.47;;;24.65;76.04
46412;BME280;32113;42.012;24.870;2022-09-02T12:03:47;98674.63;;;24.52;77.46
46412;BME280;32113;42.012;24.870;2022-09-02T12:06:16;98672.50;;;24.57;78.96
46412;BME280;32113;42.012;24.870;2022-09-02T12:11:10;98663.56;;;24.71;79.67
46412;BME280;32113;42.012;24.870;2022-09-02T12:13:54;98640.69;;;24.73;80.50
46412;BME280;32113;42.012;24.870;2022-09-02T12:21:20;98645.59;;;24.89;80.77
46412;BME280;32113;42.012;24.870;2022-09-02T12:26:23;98640.38;;;25.01;79.26
46412;BME280;32113;42.012;24.870;2022-09-02T12:28:50;98644.19;;;25.08;80.43
46412;BME280;32113;42.012;24.870;2022-09-02T12:39:43;98658.66;;;25.25;76.88
46412;BME280;32113;42.012;24.870;2022-09-02T12:41:42;98657.81;;;25.25;76.60
46412;BME280;32113;42.012;24.870;2022-09-02T12:51:55;98685.31;;;24.85;76.23
46412;BME280;32113;42.012;24.870;2022-09-02T12:54:23;98673.34;;;24.69;76.36
46412;BME280;32113;42.012;24.870;2022-09-02T12:56:50;98656.75;;;24.57;77.44
46412;BME280;32113;42.012;24.870;2022-09-02T12:59:35;98653.41;;;24.55;78.33
46412;BME280;32113;42.012;24.870;2022-09-02T13:02:09;98643.88;;;24.54;79.86
46412;BME280;32113;42.012;24.870;2022-09-02T13:33:05;98613.00;;;24.58;90.09
46412;BME280;32113;42.012;24.870;2022-09-02T13:35:32;98617.66;;;24.65;89.34
46412;BME280;32113;42.012;24.870;2022-09-02T13:37:59;98620.16;;;24.67;87.42
46412;BME280;32113;42.012;24.870;2022-09-02T13:40:26;98618.38;;;24.67;87.26
46412;BME280;32113;42.012;24.870;2022-09-02T13:43:37;98625.88;;;24.72;87.67
46412;BME280;32113;42.012;24.870;2022-09-02T13:45:38;98623.03;;;24.75;87.44
46412;BME280;32113;42.012;24.870;2022-09-02T13:50:45;98630.53;;;24.80;87.46
46412;BME280;32113;42.012;24.870;2022-09-02T13:55:47;98636.75;;;24.79;85.54
46412;BME280;32113;42.012;24.870;2022-09-02T13:58:24;98634.13;;;24.79;84.10
46412;BME280;32113;42.012;24.870;2022-09-02T14:00:56;98631.09;;;24.85;83.37
46412;BME280;32113;42.012;24.870;2022-09-02T14:03:22;98628.19;;;24.77;83.99
46412;BME280;32113;42.012;24.870;2022-09-02T14:05:51;98617.91;;;24.62;79.33
46412;BME280;32113;42.012;24.870;2022-09-02T14:08:19;98608.56;;;24.47;83.94
46412;BME280;32113;42.012;24.870;2022-09-02T14:10:45;98603.44;;;24.45;85.60
46412;BME280;32113;42.012;24.870;2022-09-02T14:13:12;98606.06;;;24.45;85.10
46412;BME280;32113;42.012;24.870;2022-09-02T14:15:39;98600.91;;;24.32;84.53
46412;BME280;32113;42.012;24.870;2022-09-02T14:18:05;98605.44;;;24.30;86.31
46412;BME280;32113;42.012;24.870;2022-09-02T14:20:31;98602.06;;;24.28;88.42
46412;BME280;32113;42.012;24.870;2022-09-02T14:22:56;98613.19;;;24.32;89.14
46412;BME280;32113;42.012;24.870;2022-09-02T14:25:22;98613.78;;;24.35;89.14
46412;BME280;32113;42.012;24.870;2022-09-02T14:27:52;98627.09;;;24.32;87.29
46412;BME280;32113;42.012;24.870;2022-09-02T14:30:33;98626.50;;;24.28;86.20
46412;BME280;32113;42.012;24.870;2022-09-02T14:33:22;98621.16;;;24.30;86.08
46412;BME280;32113;42.012;24.870;2022-09-02T14:35:54;98623.56;;;24.33;86.58
46412;BME280;32113;42.012;24.870;2022-09-02T14:38:24;98627.75;;;24.36;87.20
46412;BME280;32113;42.012;24.870;2022-09-02T14:40:57;98630.34;;;24.36;88.38
46412;BME280;32113;42.012;24.870;2022-09-02T14:43:23;98641.44;;;24.39;87.57
46412;BME280;32113;42.012;24.870;2022-09-02T14:45:48;98648.06;;;24.32;89.21
46412;BME280;32113;42.012;24.870;2022-09-02T14:50:42;98674.16;;;24.22;90.58
46412;BME280;32113;42.012;24.870;2022-09-02T14:53:08;98681.03;;;24.12;89.47
46412;BME280;32113;42.012;24.870;2022-09-02T14:55:44;98684.47;;;24.12;89.08
46412;BME280;32113;42.012;24.870;2022-09-02T14:58:10;98679.22;;;24.12;89.63